Coastal Carolina Regional Airport
KEWN : now visible

Airfield :











YOU CAN JOIN US ON...

 
LOGIN :

Register | Disclaimer

   EN    FR    IT 

 









Legend :    VFR   Marginal VFR   IFR   Intensive IFR   Very Intensive IFR
Visi :
Ceiling :
>= 8 km
>= 3000ft
5 to 8 km
1000 to 3000 ft
1500m to 5 km
500 to 1000 ft
800 to 1500m
200 to 500 ft
< 800m
< 200 ft
Symbols :   Thunderstorms  Fog  Heavy snow  Heavy precipitations  Wind > 20 kt






- Airport Elevation : 18 ft
- IATA code : EWN


KEWN - Coastal Carolina Regional

CURRENT METAR :
  • 162154Z 11010KT 10SM CLR 29/13 A3016 RMK AO2 SLP212 T02890133

EXPIRED METARs :
  • 162054Z 08009KT 10SM CLR 31/12 A3016 RMK AO2 SLP214 T03060122 58006
  • 161954Z 10010G16KT 10SM CLR 31/13 A3017 RMK AO2 SLP217 T03060128
  • 161854Z 07005G14KT 10SM CLR 31/12 A3018 RMK AO2 SLP219 T03110122
  • 161754Z 10SM CLR 31/13 A3018 RMK AO2 SLP220 T03060128 10311 20239 58004

TAF KEWN
Valid from the 16 at 18:00 until the 17 at 18:00 UTC


161729Z 1618/1718 08008KT P6SM SCT060 SCT200
KZDC FIR / North America



MET'MAP, your aeronautical weather chart ! - Copyright ORBIFLY December 2007 - Disclaimer

ORBIFLY MET'MAP TEAM :

Programming & Development : Alexandra Zaïnal
Original concept : Baudouin d'Aumeries
Technical & hardware support : Manuel Goepfert
Assistance : Marc-Olivier Méhu




SOURCES & CREDITS :

   NOAA       Earth
Advisory